Time;durP1;ratioP1;P1;durP2;ratioP2;P2;SDS_P1;SDS_P2;PMS_P1;PMS_P2;Temp;Humidity;BMP_temperature;BMP_pressure;BME280_temperature;BME280_humidity;BME280_pressure;Samples;Min_cycle;Max_cycle;Signal;HPM_P1;HPM_P2
2021/08/18 00:00:24;;;;;;;;;4.00;4.00;;;;;19.06;60.39;101239.84;5016175;28;45520;-61
2021/08/18 00:02:49;;;;;;;;;4.25;4.25;;;;;19.06;60.16;101250.50;5015914;28;64574;-60
2021/08/18 00:05:15;;;;;;;;;7.00;4.25;;;;;19.05;60.22;101243.53;5016452;28;57472;-61
2021/08/18 00:07:40;;;;;;;;;6.50;4.75;;;;;19.05;60.19;101233.72;5016964;28;45293;-61
2021/08/18 00:10:10;;;;;;;;;7.50;4.25;;;;;19.05;60.09;101238.19;5017042;28;45460;-60
2021/08/18 00:12:35;;;;;;;;;4.00;3.50;;;;;19.05;60.23;101236.38;5015479;28;46266;-61
2021/08/18 00:15:01;;;;;;;;;6.00;5.00;;;;;19.05;60.09;101228.38;5016236;28;61094;-61
2021/08/18 00:17:26;;;;;;;;;5.75;5.00;;;;;19.06;60.00;101226.53;5016490;28;45368;-61
2021/08/18 00:19:51;;;;;;;;;6.75;5.00;;;;;19.07;60.03;101236.19;5015849;28;69326;-60
2021/08/18 00:22:17;;;;;;;;;5.00;4.00;;;;;19.07;59.64;101223.72;5016802;28;45406;-61
2021/08/18 00:24:42;;;;;;;;;5.00;4.25;;;;;19.07;59.94;101231.72;5015703;28;71346;-61
2021/08/18 00:27:10;;;;;;;;;3.25;3.25;;;;;19.06;59.88;101224.72;5015700;28;73123;-61
2021/08/18 00:29:35;;;;;;;;;5.75;4.25;;;;;19.06;60.00;101224.72;5016194;28;55113;-60
2021/08/18 00:32:01;;;;;;;;;6.00;5.00;;;;;19.06;59.88;101224.72;5014904;28;64655;-61
2021/08/18 00:34:26;;;;;;;;;4.50;4.50;;;;;19.07;59.53;101230.88;5015133;28;47368;-61
2021/08/18 00:36:52;;;;;;;;;7.25;5.50;;;;;19.06;59.71;101219.41;5015216;28;73122;-61
2021/08/18 00:39:17;;;;;;;;;6.00;4.00;;;;;19.06;59.29;101226.53;5015432;28;68157;-61
2021/08/18 00:41:44;;;;;;;;;7.25;4.00;;;;;19.05;59.74;101227.56;5016331;28;45510;-60
2021/08/18 00:44:10;;;;;;;;;7.00;5.25;;;;;19.03;59.68;101219.75;5014998;28;48194;-61
2021/08/18 00:46:53;;;;;;;;;4.50;4.50;;;;;19.01;59.43;101224.41;5016357;28;45527;-61
2021/08/18 00:49:19;;;;;;;;;4.00;4.00;;;;;19.02;59.38;101225.22;5015175;28;45490;-61
2021/08/18 00:51:45;;;;;;;;;4.50;3.75;;;;;19.00;59.50;101219.25;5016239;28;45594;-61
2021/08/18 00:54:10;;;;;;;;;6.75;6.00;;;;;19.01;59.44;101221.75;5016281;28;46864;-61
2021/08/18 00:56:36;;;;;;;;;6.75;4.75;;;;;18.99;59.46;101213.13;5015139;28;69878;-61
2021/08/18 00:59:01;;;;;;;;;4.00;4.00;;;;;19.00;59.76;101211.25;5014211;28;68594;-61
2021/08/18 01:01:26;;;;;;;;;5.25;5.00;;;;;19.00;59.30;101216.59;5014121;28;70334;-61
2021/08/18 01:03:52;;;;;;;;;7.00;4.50;;;;;18.99;59.41;101218.44;5014797;28;75543;-61
2021/08/18 01:06:17;;;;;;;;;4.00;4.00;;;;;18.99;59.65;101218.44;5015160;28;72915;-61
2021/08/18 01:08:42;;;;;;;;;8.25;4.50;;;;;18.98;59.72;101216.78;5015300;28;65816;-60
2021/08/18 01:11:08;;;;;;;;;3.75;3.75;;;;;18.97;59.76;101215.13;5015158;28;67735;-60
2021/08/18 01:13:33;;;;;;;;;6.75;4.00;;;;;18.96;59.78;101216.94;5015394;28;65574;-61
2021/08/18 01:15:59;;;;;;;;;5.75;4.00;;;;;18.96;59.71;101208.13;4998399;28;45192;-60
2021/08/18 01:18:24;;;;;;;;;6.00;5.00;;;;;18.97;59.76;101220.44;5016031;28;45386;-61
2021/08/18 01:20:50;;;;;;;;;5.00;4.25;;;;;18.95;59.79;101214.44;5016087;28;45455;-61
2021/08/18 01:23:15;;;;;;;;;5.50;5.00;;;;;18.96;59.39;101216.13;5015916;28;45230;-59
2021/08/18 01:25:42;;;;;;;;;7.50;4.00;;;;;18.94;59.78;101210.91;5014524;28;49607;-61
2021/08/18 01:28:08;;;;;;;;;5.75;4.00;;;;;18.95;59.61;101223.22;5016099;28;45225;-60
2021/08/18 01:30:33;;;;;;;;;5.00;4.00;;;;;18.93;59.62;101214.59;5016026;28;45573;-61
2021/08/18 01:33:03;;;;;;;;;5.25;4.00;;;;;18.94;59.65;101207.44;5015812;28;45419;-61
2021/08/18 01:35:33;;;;;;;;;4.00;4.00;;;;;18.92;59.60;101207.59;5015825;28;45376;-60
2021/08/18 01:38:00;;;;;;;;;6.00;3.00;;;;;18.94;59.53;101210.09;5015873;28;45460;-61
2021/08/18 01:40:25;;;;;;;;;3.75;3.00;;;;;18.95;59.60;101209.09;5015719;28;45367;-60
2021/08/18 01:42:51;;;;;;;;;7.25;3.00;;;;;18.94;59.89;101199.47;5017807;28;45452;-59
2021/08/18 01:45:24;;;;;;;;;5.00;3.00;;;;;18.94;59.87;101199.47;5019032;28;45328;-60
2021/08/18 01:47:50;;;;;;;;;4.75;4.75;;;;;18.94;59.66;101200.28;5018917;28;47452;-61
2021/08/18 01:50:15;;;;;;;;;3.00;3.00;;;;;18.95;59.76;101196.59;5019192;28;45618;-62
2021/08/18 01:52:42;;;;;;;;;6.75;4.75;;;;;18.94;59.75;101204.78;5019016;28;45938;-61
2021/08/18 01:55:07;;;;;;;;;3.50;3.50;;;;;18.92;59.96;101201.47;5019063;28;45287;-61
2021/08/18 01:57:33;;;;;;;;;3.75;3.00;;;;;18.90;59.71;101200.81;5018865;28;45430;-60
2021/08/18 01:59:58;;;;;;;;;6.25;4.00;;;;;18.89;60.06;101199.16;5018022;28;67947;-61
2021/08/18 02:02:28;;;;;;;;;3.25;3.00;;;;;18.87;59.79;101198.50;5018502;28;45815;-61
2021/08/18 02:04:53;;;;;;;;;5.00;3.75;;;;;18.86;59.94;101196.84;5018304;28;45471;-60
2021/08/18 02:07:18;;;;;;;;;3.75;3.00;;;;;18.87;60.11;101198.50;5017915;28;68254;-60
2021/08/18 02:09:44;;;;;;;;;4.25;3.25;;;;;18.87;59.95;101193.16;5017815;28;68949;-62
2021/08/18 02:12:09;;;;;;;;;5.25;4.00;;;;;18.87;59.87;101193.16;5017681;28;71062;-60
2021/08/18 02:14:35;;;;;;;;;5.25;3.75;;;;;18.87;59.97;101199.31;5018648;28;45358;-61
2021/08/18 02:17:00;;;;;;;;;4.50;3.25;;;;;18.87;59.67;101195.84;5017443;28;45360;-61
2021/08/18 02:19:26;;;;;;;;;5.00;4.00;;;;;18.88;59.75;101200.16;5017888;28;63487;-61
2021/08/18 02:21:51;;;;;;;;;2.75;2.75;;;;;18.89;59.55;101196.50;5016421;28;70860;-61
2021/08/18 02:24:17;;;;;;;;;3.50;3.00;;;;;18.88;59.53;101190.31;5017484;28;72579;-61
2021/08/18 02:26:42;;;;;;;;;5.00;3.00;;;;;18.88;59.82;101187.66;5018658;28;45626;-60
2021/08/18 02:29:07;;;;;;;;;3.25;3.25;;;;;18.87;59.51;101180.66;5017634;28;69419;-61
2021/08/18 02:31:33;;;;;;;;;6.50;2.50;;;;;18.87;60.03;101180.66;5018333;28;46186;-62
2021/08/18 02:33:58;;;;;;;;;5.25;3.50;;;;;18.87;59.62;101183.34;5017602;28;70319;-61
2021/08/18 02:36:23;;;;;;;;;4.00;3.50;;;;;18.86;59.86;101181.69;5017605;28;64457;-61
2021/08/18 02:38:49;;;;;;;;;4.25;2.00;;;;;18.86;59.73;101175.53;5018356;28;45519;-61
2021/08/18 02:41:14;;;;;;;;;3.50;3.50;;;;;18.87;59.54;101174.53;5018189;28;46190;-62
2021/08/18 02:43:40;;;;;;;;;5.00;3.25;;;;;18.89;59.60;101180.50;5017239;28;72185;-60
2021/08/18 02:46:05;;;;;;;;;5.25;4.00;;;;;18.87;59.62;101178.00;5017358;28;66170;-61
2021/08/18 02:48:30;;;;;;;;;3.00;3.00;;;;;18.87;59.58;101182.53;5017196;28;69606;-61
2021/08/18 02:50:57;;;;;;;;;5.00;5.00;;;;;18.84;59.74;101184.53;5017492;28;60627;-61
2021/08/18 02:53:23;;;;;;;;;2.75;2.75;;;;;18.85;59.70;101180.00;5017518;28;45665;-60
2021/08/18 02:55:48;;;;;;;;;4.25;3.75;;;;;18.84;59.61;101179.19;5017812;28;48892;-61
2021/08/18 02:58:14;;;;;;;;;3.50;3.50;;;;;18.83;59.97;101182.03;5017487;28;58540;-61
2021/08/18 03:00:39;;;;;;;;;3.00;3.00;;;;;18.80;59.93;101188.53;5016889;28;73692;-60
2021/08/18 03:03:04;;;;;;;;;4.50;3.75;;;;;18.77;59.76;101178.25;5016050;28;56328;-60
2021/08/18 03:05:30;;;;;;;;;3.00;3.00;;;;;18.74;60.06;101177.78;5017324;28;60469;-61
2021/08/18 03:07:55;;;;;;;;;4.00;3.00;;;;;18.72;60.34;101183.25;5015917;28;70430;-60
2021/08/18 03:10:21;;;;;;;;;3.50;3.00;;;;;18.68;60.41;101177.47;5015565;28;70926;-60
2021/08/18 03:12:46;;;;;;;;;3.25;3.00;;;;;18.68;61.13;101176.63;5016822;28;71442;-60
2021/08/18 03:15:12;;;;;;;;;4.00;2.50;;;;;18.67;61.72;101177.63;5017820;28;45324;-60
2021/08/18 03:17:37;;;;;;;;;3.00;3.00;;;;;18.65;61.73;101177.81;5017687;28;45650;-61
2021/08/18 03:20:04;;;;;;;;;3.00;3.00;;;;;18.63;62.14;101179.81;5017403;28;50090;-61
2021/08/18 03:22:30;;;;;;;;;4.75;2.25;;;;;18.60;62.32;101168.66;5017585;28;45784;-61
2021/08/18 03:24:55;;;;;;;;;2.00;2.00;;;;;18.60;61.94;101176.66;5016484;28;45443;-60
2021/08/18 03:27:20;;;;;;;;;3.25;3.25;;;;;18.57;62.32;101175.19;5016659;28;70427;-61
2021/08/18 03:29:46;;;;;;;;;4.75;4.50;;;;;18.57;62.22;101177.84;5016852;28;58702;-61
2021/08/18 03:32:11;;;;;;;;;2.75;2.25;;;;;18.57;61.95;101182.31;5016527;28;71226;-61
2021/08/18 03:34:36;;;;;;;;;2.25;2.25;;;;;18.52;61.83;101170.38;5016911;28;59329;-61
2021/08/18 03:37:02;;;;;;;;;5.00;3.00;;;;;18.52;62.01;101161.56;5017415;28;45356;-60
2021/08/18 03:39:27;;;;;;;;;7.25;3.50;;;;;18.53;61.62;101165.88;5016961;28;49826;-60
2021/08/18 03:41:53;;;;;;;;;5.50;4.00;;;;;18.51;61.73;101165.22;5016477;28;68164;-61
2021/08/18 03:44:18;;;;;;;;;3.25;3.00;;;;;18.50;61.67;101167.06;5017368;28;45589;-60
2021/08/18 03:46:43;;;;;;;;;3.50;3.00;;;;;18.49;61.66;101168.06;5016526;28;64455;-61
2021/08/18 03:49:09;;;;;;;;;2.75;2.50;;;;;18.47;61.77;101162.09;5015003;28;74132;-61
2021/08/18 03:51:34;;;;;;;;;3.25;3.00;;;;;18.47;61.55;101167.41;5016304;28;59635;-61
2021/08/18 03:54:00;;;;;;;;;3.25;3.00;;;;;18.45;61.65;101166.75;5016217;28;64968;-60
2021/08/18 03:56:25;;;;;;;;;4.25;4.00;;;;;18.45;62.47;101173.91;5016025;28;64397;-61
2021/08/18 03:58:50;;;;;;;;;3.75;3.00;;;;;18.45;62.46;101172.06;5015996;28;70826;-60
2021/08/18 04:01:16;;;;;;;;;4.00;4.00;;;;;18.42;62.94;101164.44;5017082;28;45339;-60
2021/08/18 04:03:41;;;;;;;;;5.50;4.00;;;;;18.42;62.84;101163.59;5015856;28;69449;-60
2021/08/18 04:06:07;;;;;;;;;4.25;3.25;;;;;18.42;62.90;101160.94;5015857;28;45559;-61
2021/08/18 04:08:32;;;;;;;;;4.00;3.00;;;;;18.41;62.73;101165.44;5016741;28;45434;-61
2021/08/18 04:10:57;;;;;;;;;4.75;4.00;;;;;18.41;63.04;101162.78;5016337;28;57994;-61
2021/08/18 04:13:23;;;;;;;;;3.00;3.00;;;;;18.38;63.24;101163.13;5016892;28;45738;-60
2021/08/18 04:15:48;;;;;;;;;6.50;4.25;;;;;18.34;63.03;101159.97;5016123;28;66007;-61
2021/08/18 04:18:14;;;;;;;;;4.00;4.00;;;;;18.33;63.10;101154.81;5016604;28;45994;-61
2021/08/18 04:20:39;;;;;;;;;5.00;4.00;;;;;18.33;63.28;101165.47;5016683;28;45302;-61
2021/08/18 04:23:05;;;;;;;;;3.75;3.75;;;;;18.33;63.24;101173.44;5016942;28;45584;-61
2021/08/18 04:25:30;;;;;;;;;5.50;3.00;;;;;18.31;63.31;101162.97;5015837;28;65304;-60
2021/08/18 04:27:55;;;;;;;;;3.00;2.25;;;;;18.29;63.15;101167.63;5015894;28;45421;-60
2021/08/18 04:30:21;;;;;;;;;4.25;3.00;;;;;18.29;63.11;101164.16;5015403;28;73298;-61
2021/08/18 04:32:46;;;;;;;;;3.00;3.00;;;;;18.28;63.25;101171.28;5016595;28;45768;-61
2021/08/18 04:35:12;;;;;;;;;6.00;4.00;;;;;18.28;63.16;101173.13;5015534;28;65757;-60
2021/08/18 04:37:37;;;;;;;;;3.00;3.00;;;;;18.27;63.21;101174.13;5016359;28;46162;-61
2021/08/18 04:40:04;;;;;;;;;4.50;3.75;;;;;18.25;63.00;101171.66;5016415;28;45352;-61
2021/08/18 04:42:34;;;;;;;;;5.25;5.00;;;;;18.25;63.19;101174.31;5016481;28;45438;-61
2021/08/18 04:44:59;;;;;;;;;4.00;4.00;;;;;18.25;63.18;101169.00;5015899;28;45555;-60
2021/08/18 04:47:25;;;;;;;;;5.00;5.00;;;;;18.24;63.32;101176.13;5016318;28;45781;-60
2021/08/18 04:49:50;;;;;;;;;4.50;4.00;;;;;18.24;63.09;101168.16;5015295;28;72313;-61
2021/08/18 04:52:15;;;;;;;;;6.25;4.75;;;;;18.26;62.90;101167.16;5014882;28;47381;-60
2021/08/18 04:54:41;;;;;;;;;7.50;5.00;;;;;18.27;62.93;101168.81;5015827;28;52525;-61
2021/08/18 04:57:06;;;;;;;;;8.25;5.00;;;;;18.27;62.93;101168.81;5015974;28;45228;-60
2021/08/18 04:59:32;;;;;;;;;5.25;5.25;;;;;18.28;63.07;101170.47;5016256;28;45264;-61
2021/08/18 05:01:57;;;;;;;;;7.25;6.25;;;;;18.30;62.88;101157.84;5016232;28;45229;-61
2021/08/18 05:04:22;;;;;;;;;5.25;5.25;;;;;18.30;62.54;101160.50;5015157;28;69421;-61
2021/08/18 05:06:48;;;;;;;;;6.00;5.00;;;;;18.30;62.77;101161.31;5015992;28;46001;-61
2021/08/18 05:09:13;;;;;;;;;7.00;6.25;;;;;18.32;62.44;101161.16;5015206;28;68536;-61
2021/08/18 05:11:39;;;;;;;;;6.00;6.00;;;;;18.31;62.49;101168.28;5015331;28;61010;-61
2021/08/18 05:14:04;;;;;;;;;4.25;4.25;;;;;18.32;62.36;101167.28;5016046;28;45548;-60
2021/08/18 05:16:29;;;;;;;;;8.00;5.00;;;;;18.32;62.60;101169.94;5014927;28;74565;-61
2021/08/18 05:18:55;;;;;;;;;7.50;6.00;;;;;18.33;62.42;101173.44;5019455;28;45249;-61
2021/08/18 05:21:20;;;;;;;;;7.50;6.00;;;;;18.33;62.53;101170.78;5019002;28;58174;-60
2021/08/18 05:23:45;;;;;;;;;8.75;6.00;;;;;18.33;62.31;101176.94;5019226;28;50982;-60
2021/08/18 05:26:11;;;;;;;;;11.75;6.00;;;;;18.34;62.78;101177.78;5018387;28;74403;-60
2021/08/18 05:28:36;;;;;;;;;6.25;3.00;;;;;18.34;62.65;101175.94;5018268;28;72286;-60
2021/08/18 05:31:01;;;;;;;;;6.00;5.50;;;;;18.34;63.11;101175.94;5018866;28;61474;-60
2021/08/18 05:33:27;;;;;;;;;8.50;6.00;;;;;18.32;63.84;101172.59;5018494;28;67603;-61
2021/08/18 05:35:52;;;;;;;;;6.00;5.00;;;;;18.32;63.94;101174.44;5018448;28;69273;-61
2021/08/18 05:38:18;;;;;;;;;4.00;4.00;;;;;18.32;64.27;101169.13;5019186;28;45322;-61
2021/08/18 05:40:43;;;;;;;;;6.75;5.25;;;;;18.32;64.30;101179.78;5018246;28;69422;-61
2021/08/18 05:43:11;;;;;;;;;6.25;6.00;;;;;18.30;64.33;101181.78;5019280;28;45451;-61
2021/08/18 05:45:37;;;;;;;;;5.25;5.25;;;;;18.28;64.06;101183.78;5019095;28;45288;-61
2021/08/18 05:48:02;;;;;;;;;7.00;6.00;;;;;18.28;64.61;101184.59;5018101;28;71150;-59
2021/08/18 05:50:27;;;;;;;;;6.00;6.00;;;;;18.27;64.19;101182.13;5018832;28;49697;-60
2021/08/18 05:52:54;;;;;;;;;5.25;5.25;;;;;18.26;64.64;101183.13;5019104;28;45459;-60
2021/08/18 05:55:19;;;;;;;;;5.25;4.75;;;;;18.26;64.60;101194.59;5017692;28;46237;-60
2021/08/18 05:57:45;;;;;;;;;7.00;6.00;;;;;18.24;64.64;101192.09;5017918;28;68166;-60
2021/08/18 06:00:10;;;;;;;;;6.00;6.00;;;;;18.24;64.40;101189.44;5019155;28;45309;-60
2021/08/18 06:02:36;;;;;;;;;5.25;4.50;;;;;18.25;64.55;101187.63;5018832;28;45454;-61
2021/08/18 06:05:01;;;;;;;;;5.25;5.25;;;;;18.25;64.70;101190.28;5018876;28;45875;-62
2021/08/18 06:07:27;;;;;;;;;8.75;5.75;;;;;18.26;64.81;101185.78;5017692;28;70377;-61
2021/08/18 06:09:52;;;;;;;;;5.00;5.00;;;;;18.27;64.49;101193.59;5017849;28;69842;-62
2021/08/18 06:12:17;;;;;;;;;6.25;5.00;;;;;18.28;64.66;101189.09;5017838;28;70055;-59
2021/08/18 06:14:43;;;;;;;;;8.00;5.00;;;;;18.26;64.81;101185.78;5018464;28;45792;-59
2021/08/18 06:17:08;;;;;;;;;5.50;5.00;;;;;18.26;65.35;101193.75;5018469;28;45362;-61
2021/08/18 06:19:33;;;;;;;;;6.00;6.00;;;;;18.26;65.12;101188.44;5018430;28;45760;-61
2021/08/18 06:22:00;;;;;;;;;6.00;6.00;;;;;18.26;65.19;101193.75;5017582;28;69009;-61
2021/08/18 06:24:43;;;;;;;;;7.00;6.00;;;;;18.28;65.79;101197.06;5018292;28;45431;-61
2021/08/18 06:27:10;;;;;;;;;6.25;6.00;;;;;18.29;65.74;101188.09;5018412;28;45935;-61
2021/08/18 06:29:36;;;;;;;;;6.25;4.50;;;;;18.32;65.41;101193.88;5017487;28;45399;-61
2021/08/18 06:32:04;;;;;;;;;7.25;7.00;;;;;18.34;65.46;101193.72;5018369;28;45436;-60
2021/08/18 06:34:30;;;;;;;;;8.25;5.50;;;;;18.38;65.56;101195.06;5017091;28;46111;-61
2021/08/18 06:36:55;;;;;;;;;7.00;7.00;;;;;18.41;65.71;101194.72;5018200;28;45402;-62
2021/08/18 06:39:20;;;;;;;;;7.75;5.25;;;;;18.45;65.67;101193.38;5017543;28;66318;-61
2021/08/18 06:41:46;;;;;;;;;7.25;6.50;;;;;18.49;65.42;101205.31;5017295;28;70549;-61
2021/08/18 06:44:11;;;;;;;;;10.00;7.75;;;;;18.48;65.32;101195.69;5017273;28;70479;-60
2021/08/18 06:46:36;;;;;;;;;7.00;6.25;;;;;18.53;66.07;101198.66;5018155;28;45478;-61
2021/08/18 06:49:02;;;;;;;;;8.00;8.00;;;;;18.57;65.68;101199.13;5017394;28;58517;-61
2021/08/18 06:51:28;;;;;;;;;5.50;5.50;;;;;18.62;65.46;101201.25;5018041;28;45318;-60
2021/08/18 06:53:53;;;;;;;;;8.50;7.00;;;;;18.63;65.37;101192.28;5017750;28;49476;-60
2021/08/18 06:56:19;;;;;;;;;4.00;4.00;;;;;18.67;65.31;101199.75;5017911;28;45219;-60
2021/08/18 06:58:44;;;;;;;;;10.50;6.75;;;;;18.68;65.21;101200.56;5017216;28;59240;-61
2021/08/18 07:01:09;;;;;;;;;9.25;6.00;;;;;18.69;64.79;101200.41;5017409;28;57594;-61
2021/08/18 07:03:35;;;;;;;;;7.50;5.75;;;;;18.72;64.70;101204.56;5016591;28;66985;-61
2021/08/18 07:06:00;;;;;;;;;9.00;6.50;;;;;18.75;64.67;101209.53;5017002;28;67780;-60
2021/08/18 07:08:25;;;;;;;;;6.25;5.00;;;;;18.78;64.94;101206.53;5016970;28;67798;-60
2021/08/18 07:10:54;;;;;;;;;8.00;6.75;;;;;18.83;64.77;101208.66;5017927;28;45270;-60
2021/08/18 07:13:20;;;;;;;;;6.25;6.00;;;;;18.87;65.28;101209.16;5017618;28;45416;-60
2021/08/18 07:15:45;;;;;;;;;5.75;4.00;;;;;18.91;64.52;101205.94;5017757;28;45436;-61
2021/08/18 07:18:11;;;;;;;;;8.00;8.00;;;;;18.96;64.34;101206.28;5017689;28;45425;-61
2021/08/18 07:20:36;;;;;;;;;6.75;6.25;;;;;19.01;64.30;101204.94;5017132;28;58434;-61
2021/08/18 07:23:01;;;;;;;;;8.25;6.25;;;;;19.01;63.91;101205.78;5016201;28;46710;-60
2021/08/18 07:25:27;;;;;;;;;11.25;10.50;;;;;19.00;64.40;101201.47;5015981;28;52846;-60
2021/08/18 07:27:52;;;;;;;;;6.75;5.50;;;;;19.02;64.44;101202.09;5017467;28;45920;-61
2021/08/18 07:30:17;;;;;;;;;6.00;5.75;;;;;19.03;64.24;101201.09;5016576;28;69469;-61
2021/08/18 07:32:43;;;;;;;;;7.00;6.00;;;;;19.07;64.03;101201.56;5016564;28;65609;-61
2021/08/18 07:35:09;;;;;;;;;8.50;8.00;;;;;19.09;63.87;101203.03;5016763;28;57621;-61
2021/08/18 07:37:34;;;;;;;;;7.75;7.75;;;;;19.15;63.81;101200.69;5017093;28;45385;-61
2021/08/18 07:40:00;;;;;;;;;6.00;6.00;;;;;19.18;63.37;101197.66;5016034;28;45381;-60
2021/08/18 07:42:25;;;;;;;;;5.00;5.00;;;;;19.21;63.26;101198.16;5015941;28;46070;-61
2021/08/18 07:44:50;;;;;;;;;6.25;6.25;;;;;19.25;63.52;101202.13;5017229;28;45312;-61
2021/08/18 07:47:16;;;;;;;;;9.00;6.00;;;;;19.31;62.84;101200.56;5017411;28;45753;-61
2021/08/18 07:49:41;;;;;;;;;9.25;8.00;;;;;19.35;62.35;101199.22;5016381;28;66114;-61
2021/08/18 07:52:07;;;;;;;;;7.00;5.50;;;;;19.36;62.16;101203.53;5016075;28;75496;-60
2021/08/18 07:54:33;;;;;;;;;6.00;5.00;;;;;19.38;62.18;101201.53;5016926;28;45272;-61
2021/08/18 07:56:58;;;;;;;;;5.00;5.00;;;;;19.41;62.14;101201.16;5015394;28;45322;-61
2021/08/18 07:59:23;;;;;;;;;5.50;5.25;;;;;19.42;61.89;101205.50;5016032;28;62033;-62
2021/08/18 08:01:49;;;;;;;;;7.50;6.25;;;;;19.45;62.12;101206.16;5016962;28;45445;-61
2021/08/18 08:04:14;;;;;;;;;6.00;5.75;;;;;19.45;62.23;101206.16;5015796;28;68205;-62
2021/08/18 08:06:40;;;;;;;;;5.00;4.50;;;;;19.45;63.00;101206.97;5016183;28;62878;-61
2021/08/18 08:09:05;;;;;;;;;8.00;6.00;;;;;19.41;62.76;101206.50;5016999;28;45499;-61
2021/08/18 08:11:30;;;;;;;;;6.00;5.00;;;;;19.40;63.57;101210.16;5016404;28;57445;-61
2021/08/18 08:13:56;;;;;;;;;8.00;4.75;;;;;19.40;63.78;101204.00;5016028;28;61817;-61
2021/08/18 08:16:21;;;;;;;;;8.00;6.50;;;;;19.40;64.18;101204.00;5016122;28;61886;-60
2021/08/18 08:18:47;;;;;;;;;8.00;6.25;;;;;19.40;63.47;101204.84;5015722;28;68729;-60
2021/08/18 08:21:12;;;;;;;;;6.00;6.00;;;;;19.41;63.98;101201.16;5016688;28;45900;-61
2021/08/18 08:23:37;;;;;;;;;5.50;5.00;;;;;19.43;63.97;101204.47;5015820;28;68203;-61
2021/08/18 08:26:03;;;;;;;;;7.50;5.75;;;;;19.47;64.67;101206.78;5016963;28;45579;-62
2021/08/18 08:28:28;;;;;;;;;8.75;5.75;;;;;19.50;64.37;101203.78;5016589;28;45556;-60
2021/08/18 08:30:53;;;;;;;;;6.75;6.00;;;;;19.55;63.89;101212.06;5015457;28;74530;-61
2021/08/18 08:33:19;;;;;;;;;9.00;6.00;;;;;19.58;63.39;101204.53;5015683;28;64186;-61
2021/08/18 08:35:44;;;;;;;;;7.50;6.00;;;;;19.60;63.43;101212.38;5015634;28;67605;-61
2021/08/18 08:38:10;;;;;;;;;6.00;6.00;;;;;19.61;63.82;101216.66;5015883;28;58576;-62
2021/08/18 08:40:37;;;;;;;;;7.50;5.00;;;;;19.63;63.74;101205.81;5016206;28;46030;-61
2021/08/18 08:43:02;;;;;;;;;8.00;6.00;;;;;19.67;63.25;101209.78;5014960;28;47652;-61
2021/08/18 08:45:27;;;;;;;;;7.00;6.50;;;;;19.71;63.17;101211.91;4998528;28;45366;-61
2021/08/18 08:47:53;;;;;;;;;13.50;10.50;;;;;19.76;62.72;101211.38;5016061;28;45209;-60
2021/08/18 08:50:18;;;;;;;;;11.00;7.75;;;;;19.81;63.16;101211.66;5013983;28;70721;-61
2021/08/18 08:52:44;;;;;;;;;8.00;7.00;;;;;19.85;62.60;101212.97;5020066;28;66517;-61
2021/08/18 08:55:10;;;;;;;;;10.00;6.75;;;;;19.87;61.71;101213.59;5022997;28;45363;-61
2021/08/18 08:57:52;;;;;;;;;6.00;6.00;;;;;19.89;61.51;101220.59;5022720;28;45237;-60
2021/08/18 09:00:18;;;;;;;;;7.00;5.50;;;;;19.89;61.83;101217.94;5022602;28;45325;-61
2021/08/18 09:02:43;;;;;;;;;8.00;6.50;;;;;19.90;61.37;101220.44;5022426;28;45768;-60
2021/08/18 09:05:09;;;;;;;;;5.25;4.25;;;;;19.92;61.39;101217.59;5022916;28;45270;-61
2021/08/18 09:07:34;;;;;;;;;7.00;7.00;;;;;19.96;61.24;101214.38;5022404;28;46602;-61
2021/08/18 09:10:02;;;;;;;;;7.00;6.00;;;;;20.01;60.61;101217.34;5022193;28;57413;-61
2021/08/18 09:12:35;;;;;;;;;9.00;6.00;;;;;20.05;60.49;101215.13;5022772;28;45799;-60
2021/08/18 09:15:19;;;;;;;;;5.75;5.00;;;;;20.07;60.52;101210.44;5022924;28;45376;-61
2021/08/18 09:17:45;;;;;;;;;7.25;6.00;;;;;20.09;60.21;101210.28;5022711;28;45534;-61
2021/08/18 09:20:13;;;;;;;;;7.25;5.50;;;;;20.10;60.14;101209.25;5022378;28;45941;-61
2021/08/18 09:22:52;;;;;;;;;7.00;6.00;;;;;20.12;60.21;101208.06;5022554;28;48059;-60
2021/08/18 09:25:19;;;;;;;;;6.25;5.00;;;;;20.16;60.23;101211.16;5022690;28;45380;-61
2021/08/18 09:28:07;;;;;;;;;7.25;5.00;;;;;20.20;59.62;101201.78;5022484;28;45277;-60
2021/08/18 09:30:43;;;;;;;;;6.00;5.75;;;;;20.23;59.54;101209.44;5014181;28;46113;-61
2021/08/18 09:33:16;;;;;;;;;7.25;6.75;;;;;20.27;59.39;101199.22;5021792;28;45393;-61
2021/08/18 09:35:42;;;;;;;;;8.00;6.00;;;;;20.30;59.44;101205.03;5022536;28;45274;-61
2021/08/18 09:38:14;;;;;;;;;7.00;6.75;;;;;20.33;59.06;101209.19;5022185;28;45292;-61
2021/08/18 09:40:49;;;;;;;;;8.00;6.75;;;;;20.40;59.03;101198.56;5022190;28;45466;-61
2021/08/18 09:43:21;;;;;;;;;5.75;5.75;;;;;20.56;59.03;101198.38;5022449;28;45850;-60
2021/08/18 09:45:54;;;;;;;;;6.50;6.50;;;;;20.71;58.02;101195.69;5022257;28;45301;-61
2021/08/18 09:48:19;;;;;;;;;7.25;5.50;;;;;20.85;57.92;101190.53;5022397;28;45309;-61
2021/08/18 09:50:55;;;;;;;;;7.00;5.25;;;;;21.02;57.86;101191.13;5021034;28;45793;-61
2021/08/18 09:53:23;;;;;;;;;10.00;6.75;;;;;21.23;57.65;101192.13;5022168;28;45817;-60
2021/08/18 09:56:04;;;;;;;;;6.50;6.00;;;;;21.47;56.87;101189.09;5022242;28;45448;-61
2021/08/18 09:58:40;;;;;;;;;6.00;5.50;;;;;21.72;56.45;101190.53;5022193;28;45222;-62
2021/08/18 10:01:14;;;;;;;;;5.50;5.50;;;;;21.89;56.20;101191.06;5022078;28;45233;-61
2021/08/18 10:04:01;;;;;;;;;6.50;6.50;;;;;22.02;55.31;101191.16;5020095;28;45294;-61
2021/08/18 10:06:26;;;;;;;;;5.00;4.00;;;;;22.11;54.87;101193.69;5019010;28;45766;-61
2021/08/18 10:08:55;;;;;;;;;6.00;5.00;;;;;22.14;54.40;101195.97;5016484;28;69398;-62
2021/08/18 10:11:21;;;;;;;;;5.75;5.75;;;;;22.14;54.25;101182.59;5017312;28;46031;-60
2021/08/18 10:13:46;;;;;;;;;5.00;4.50;;;;;22.13;54.31;101188.97;5018711;28;45962;-61
2021/08/18 10:16:13;;;;;;;;;4.00;3.75;;;;;22.12;53.58;101190.00;5000838;28;45385;-61
2021/08/18 10:18:45;;;;;;;;;5.25;5.25;;;;;22.09;53.43;101186.69;5018036;28;45446;-61
2021/08/18 10:21:31;;;;;;;;;5.00;5.00;;;;;22.04;53.86;101182.94;5018602;28;45991;-60
2021/08/18 10:24:01;;;;;;;;;5.75;5.00;;;;;22.01;54.17;101197.53;5017880;28;52593;-61
2021/08/18 10:26:47;;;;;;;;;5.25;5.00;;;;;21.96;54.10;101193.81;5018430;28;45435;-60
2021/08/18 10:29:16;;;;;;;;;3.75;3.75;;;;;21.92;54.24;101199.53;5017143;28;45882;-60
2021/08/18 10:31:41;;;;;;;;;6.25;6.00;;;;;21.88;54.58;101190.25;5018302;28;45394;-61
2021/08/18 10:34:10;;;;;;;;;5.25;4.00;;;;;21.86;53.80;101191.44;5018225;28;45281;-60
2021/08/18 10:36:42;;;;;;;;;4.25;4.00;;;;;21.82;53.41;101188.34;5018031;28;45316;-60
2021/08/18 10:39:25;;;;;;;;;4.00;2.50;;;;;21.80;53.60;101182.38;5018456;28;45557;-61
2021/08/18 10:41:57;;;;;;;;;4.50;3.00;;;;;21.81;53.52;101183.19;5018070;28;46015;-60
2021/08/18 10:44:40;;;;;;;;;3.00;3.00;;;;;21.82;53.70;101180.34;5018169;28;45240;-61
2021/08/18 10:47:11;;;;;;;;;2.00;2.00;;;;;21.87;53.24;101172.56;5017692;28;45374;-61
2021/08/18 10:49:36;;;;;;;;;7.00;4.00;;;;;21.92;52.81;101163.94;5018218;28;45308;-61
2021/08/18 10:52:02;;;;;;;;;3.00;2.00;;;;;21.98;52.51;101168.50;5015791;28;71409;-61
2021/08/18 10:54:27;;;;;;;;;3.00;3.00;;;;;22.04;53.07;101173.06;5017835;28;45367;-61
2021/08/18 10:56:58;;;;;;;;;5.00;4.00;;;;;22.10;52.81;101168.75;5017880;28;45298;-62
2021/08/18 10:59:35;;;;;;;;;4.25;3.25;;;;;22.15;51.94;101168.19;5017751;28;45257;-61
2021/08/18 11:02:03;;;;;;;;;5.00;3.50;;;;;22.17;52.44;101166.13;5017511;28;45370;-61
2021/08/18 11:04:48;;;;;;;;;5.50;4.50;;;;;22.20;52.79;101166.56;5017592;28;45293;-62
2021/08/18 11:07:14;;;;;;;;;4.00;4.00;;;;;22.23;52.89;101162.69;5017955;28;45431;-61
2021/08/18 11:09:48;;;;;;;;;3.50;3.50;;;;;22.28;51.56;101162.06;5016768;28;45302;-62
2021/08/18 11:12:38;;;;;;;;;4.00;3.00;;;;;22.31;52.09;101167.84;5017429;28;45376;-61
2021/08/18 11:15:23;;;;;;;;;4.00;3.75;;;;;22.35;51.77;101163.75;5016898;28;45241;-61
2021/08/18 11:17:50;;;;;;;;;5.75;4.00;;;;;22.39;51.83;101159.63;5017690;28;45551;-61
2021/08/18 11:20:17;;;;;;;;;3.75;3.75;;;;;22.44;51.81;101159.09;5017708;28;45266;-60
2021/08/18 11:22:42;;;;;;;;;5.00;4.50;;;;;22.48;51.22;101156.81;5017579;28;46247;-61